createdAt,value
2023-05-04T00:02:30.705Z,101130.22
2023-05-04T00:07:32.175Z,101123.09
2023-05-04T00:12:33.660Z,101123.47
2023-05-04T00:17:35.210Z,101124.78
2023-05-04T00:22:36.649Z,101117.22
2023-05-04T00:27:38.112Z,101125.88
2023-05-04T00:32:39.600Z,101114.78
2023-05-04T00:37:41.176Z,101117.91
2023-05-04T00:42:42.585Z,101107.47
2023-05-04T00:47:44.405Z,101112.31
2023-05-04T00:52:48.637Z,101110.59
2023-05-04T00:57:50.799Z,101109.38
2023-05-04T01:02:52.353Z,101116.63
2023-05-04T01:08:31.720Z,101120.63
2023-05-04T01:13:35.229Z,101120.97
2023-05-04T01:18:36.645Z,101121.28
2023-05-04T01:23:38.167Z,101125.22
2023-05-04T01:28:49.199Z,101119.16
2023-05-04T01:33:52.888Z,101119.53
2023-05-04T01:38:55.436Z,101117.03
2023-05-04T01:43:57.567Z,101122.72
2023-05-04T01:48:59.055Z,101116.53
2023-05-04T01:54:00.765Z,101121.28
2023-05-04T01:59:02.162Z,101116.88
2023-05-04T02:04:03.814Z,101119.88
2023-05-04T02:09:05.662Z,101115.69
2023-05-04T02:14:07.078Z,101117.00
2023-05-04T02:19:08.630Z,101114.56
2023-05-04T02:24:10.118Z,101108.50
2023-05-04T02:29:11.765Z,101111.25
2023-05-04T02:34:13.248Z,101103.28
2023-05-04T02:39:14.878Z,101105.41
2023-05-04T02:44:16.285Z,101100.25
2023-05-04T02:49:17.753Z,101103.03
2023-05-04T02:54:19.224Z,101105.78
2023-05-04T02:59:20.773Z,101109.59
2023-05-04T03:04:22.267Z,101106.25
2023-05-04T03:09:23.760Z,101105.38
2023-05-04T03:14:25.199Z,101106.56
2023-05-04T03:19:26.788Z,101100.78
2023-05-04T03:24:28.223Z,101101.66
2023-05-04T03:29:29.662Z,101108.78
2023-05-04T03:34:31.486Z,101109.84
2023-05-04T03:39:32.898Z,101116.19
2023-05-04T03:44:34.300Z,101117.59
2023-05-04T03:49:35.786Z,101114.91
2023-05-04T03:54:37.293Z,101121.81
2023-05-04T03:59:38.766Z,101111.06
2023-05-04T04:04:40.277Z,101122.94
2023-05-04T04:09:41.697Z,101119.63
2023-05-04T04:14:43.107Z,101115.59
2023-05-04T04:19:44.830Z,101120.19
2023-05-04T04:24:46.262Z,101133.78
2023-05-04T04:29:47.721Z,101127.44
2023-05-04T04:34:49.131Z,101127.38
2023-05-04T04:39:50.672Z,101121.53
2023-05-04T04:44:52.387Z,101127.28
2023-05-04T04:49:53.984Z,101124.78
2023-05-04T04:54:55.405Z,101126.56
2023-05-04T04:59:57.374Z,101126.66
2023-05-04T05:04:58.940Z,101121.03
2023-05-04T05:10:00.698Z,101128.31
2023-05-04T05:15:04.338Z,101125.19
2023-05-04T05:20:12.512Z,101121.16
2023-05-04T05:25:14.471Z,101122.19
2023-05-04T05:30:16.158Z,101120.25
2023-05-04T05:35:17.620Z,101120.56
2023-05-04T05:40:19.278Z,101114.78
2023-05-04T05:45:20.696Z,101118.03
2023-05-04T05:50:23.515Z,101114.50
2023-05-04T05:55:24.989Z,101129.25
2023-05-04T06:00:26.453Z,101135.97
2023-05-04T06:05:27.882Z,101128.38
2023-05-04T06:10:29.369Z,101135.19
2023-05-04T06:15:30.923Z,101130.94
2023-05-04T06:20:32.493Z,101142.28
2023-05-04T06:25:33.918Z,101138.00
2023-05-04T06:30:36.570Z,101131.66
2023-05-04T06:35:38.023Z,101135.38
2023-05-04T06:40:39.502Z,101140.78
2023-05-04T06:45:41.100Z,101134.22
2023-05-04T06:50:42.697Z,101135.06
2023-05-04T06:55:44.184Z,101135.41
2023-05-04T07:00:46.088Z,101139.88
2023-05-04T07:05:48.892Z,101133.16
2023-05-04T07:10:50.310Z,101136.75
2023-05-04T07:15:51.843Z,101137.56
2023-05-04T07:21:01.561Z,101125.75
2023-05-04T07:26:08.378Z,101133.28
2023-05-04T07:31:12.819Z,101129.28
2023-05-04T07:36:14.306Z,101120.97
2023-05-04T07:41:15.749Z,101115.13
2023-05-04T07:46:17.250Z,101120.25
2023-05-04T07:51:18.708Z,101110.69
2023-05-04T07:56:20.168Z,101113.84
2023-05-04T08:01:21.729Z,101112.09
2023-05-04T08:06:23.257Z,101109.47
2023-05-04T08:11:24.677Z,101107.50
2023-05-04T08:16:26.381Z,101103.38
2023-05-04T08:21:28.306Z,101103.44
2023-05-04T08:26:31.042Z,101110.06
2023-05-04T08:31:32.641Z,101100.72
2023-05-04T08:36:34.978Z,101100.81
2023-05-04T08:41:40.962Z,101106.16
2023-05-04T08:46:43.335Z,101098.41
2023-05-04T08:51:46.279Z,101092.16
2023-05-04T08:56:50.125Z,101083.53
2023-05-04T09:01:58.647Z,101073.78
2023-05-04T09:07:00.175Z,101078.97
2023-05-04T09:12:01.608Z,101085.00
2023-05-04T09:17:12.329Z,101078.91
2023-05-04T09:22:15.501Z,101073.25
2023-05-04T09:27:19.915Z,101068.56
2023-05-04T09:32:21.425Z,101069.63
2023-05-04T09:37:22.973Z,101065.03
2023-05-04T09:42:25.567Z,101053.53
2023-05-04T09:47:38.390Z,101048.25
2023-05-04T09:52:41.621Z,101048.81
2023-05-04T09:57:44.777Z,101041.53
2023-05-04T10:02:47.707Z,101042.66
2023-05-04T10:07:49.973Z,101040.94
2023-05-04T10:12:51.550Z,101022.66
2023-05-04T10:18:21.139Z,101037.03
2023-05-04T10:23:41.512Z,101028.25
2023-05-04T10:29:13.106Z,101021.25
2023-05-04T10:34:25.060Z,101019.09
2023-05-04T10:39:31.061Z,101010.50
2023-05-04T10:44:37.596Z,101005.31
2023-05-04T10:49:39.135Z,100996.28
2023-05-04T10:54:41.752Z,100993.41
2023-05-04T10:59:56.452Z,100985.09
2023-05-04T11:05:01.346Z,100973.88
2023-05-04T11:10:04.446Z,100962.28
2023-05-04T11:15:07.904Z,100964.56
2023-05-04T11:20:10.606Z,100947.97
2023-05-04T11:25:12.152Z,100947.78
2023-05-04T11:30:13.999Z,100938.91
2023-05-04T11:35:18.612Z,100931.56
2023-05-04T11:40:23.709Z,100925.00
2023-05-04T11:45:29.823Z,100920.63
2023-05-04T11:50:31.783Z,100916.81
2023-05-04T11:55:33.460Z,100919.94
2023-05-04T12:00:49.636Z,100922.81
2023-05-04T12:05:53.797Z,100917.59
2023-05-04T12:11:56.512Z,100911.19
2023-05-04T12:17:01.734Z,100901.06
2023-05-04T12:22:05.083Z,100893.94
2023-05-04T12:27:12.868Z,100900.25
2023-05-04T12:32:14.533Z,100896.91
2023-05-04T12:37:16.156Z,100880.50
2023-05-04T12:42:17.598Z,100880.97
2023-05-04T12:47:20.919Z,100872.03
2023-05-04T12:52:22.886Z,100866.09
2023-05-04T12:57:24.411Z,100862.06
2023-05-04T13:02:25.878Z,100858.59
2023-05-04T13:07:27.397Z,100870.94
2023-05-04T13:12:28.853Z,100867.75
2023-05-04T13:17:33.747Z,100864.16
2023-05-04T13:22:36.420Z,100851.50
2023-05-04T13:27:38.125Z,100834.53
2023-05-04T13:32:39.962Z,100837.66
2023-05-04T13:37:42.242Z,100827.44
2023-05-04T13:42:43.712Z,100812.72
2023-05-04T13:47:45.436Z,100812.72
2023-05-04T13:52:46.900Z,100816.00
2023-05-04T13:57:48.788Z,100802.69
2023-05-04T14:02:50.581Z,100796.72
2023-05-04T14:07:52.855Z,100800.59
2023-05-04T14:12:54.325Z,100794.66
2023-05-04T14:17:55.837Z,100789.66
2023-05-04T14:22:57.287Z,100775.38
2023-05-04T14:27:58.719Z,100769.69
2023-05-04T14:33:00.311Z,100759.78
2023-05-04T14:38:01.805Z,100762.91
2023-05-04T14:43:03.463Z,100751.72
2023-05-04T14:48:05.434Z,100752.97
2023-05-04T14:53:08.264Z,100749.63
2023-05-04T14:58:09.967Z,100750.38
2023-05-04T15:03:11.632Z,100747.19
2023-05-04T15:08:13.165Z,100743.50
2023-05-04T15:13:15.895Z,100733.75
2023-05-04T15:18:17.639Z,100735.22
2023-05-04T15:23:19.083Z,100737.41
2023-05-04T15:28:22.836Z,100730.97
2023-05-04T15:33:24.328Z,100727.19
2023-05-04T15:38:28.549Z,100726.50
2023-05-04T15:43:30.025Z,100720.34
2023-05-04T15:48:31.429Z,100706.50
2023-05-04T15:53:33.202Z,100707.94
2023-05-04T15:58:34.641Z,100711.13
2023-05-04T16:03:36.182Z,100705.41
2023-05-04T16:08:37.700Z,100703.94
2023-05-04T16:13:39.173Z,100699.56
2023-05-04T16:18:40.697Z,100691.44
2023-05-04T16:23:42.275Z,100690.41
2023-05-04T16:28:45.206Z,100693.47
2023-05-04T16:33:47.863Z,100688.63
2023-05-04T16:38:49.384Z,100677.88
2023-05-04T16:43:51.682Z,100674.75
2023-05-04T16:48:54.472Z,100672.63
2023-05-04T16:53:55.982Z,100668.19
2023-05-04T16:58:57.499Z,100672.94
2023-05-04T17:03:59.243Z,100670.69
2023-05-04T17:09:01.000Z,100663.66
2023-05-04T17:14:03.561Z,100669.91
2023-05-04T17:19:05.003Z,100665.06
2023-05-04T17:24:06.479Z,100670.38
2023-05-04T17:29:08.073Z,100668.28
2023-05-04T17:34:09.554Z,100658.88
2023-05-04T17:39:11.208Z,100677.56
2023-05-04T17:44:12.633Z,100672.88
2023-05-04T17:49:14.113Z,100671.91
2023-05-04T17:54:16.283Z,100672.09
2023-05-04T17:59:17.819Z,100677.28
2023-05-04T18:04:19.250Z,100668.84
2023-05-04T18:09:20.729Z,100680.34
2023-05-04T18:14:22.174Z,100691.84
2023-05-04T18:19:27.794Z,100688.97
2023-05-04T18:24:30.000Z,100693.59
2023-05-04T18:29:32.405Z,100700.19
2023-05-04T18:34:34.314Z,100698.88
2023-05-04T18:39:37.973Z,100699.19
2023-05-04T18:44:39.546Z,100697.91
2023-05-04T18:49:41.304Z,100696.75
2023-05-04T18:54:42.731Z,100702.22
2023-05-04T18:59:44.151Z,100712.50
2023-05-04T19:04:47.163Z,100699.44
2023-05-04T19:09:48.752Z,100701.88
2023-05-04T19:14:51.153Z,100709.75
2023-05-04T19:19:52.693Z,100708.44
2023-05-04T19:24:55.466Z,100706.16
2023-05-04T19:29:56.911Z,100698.28
2023-05-04T19:34:58.412Z,100697.25
2023-05-04T19:39:59.864Z,100696.63
2023-05-04T19:45:01.289Z,100698.63
2023-05-04T19:50:03.002Z,100697.75
2023-05-04T19:55:06.163Z,100686.41
2023-05-04T20:00:10.020Z,100695.75
2023-05-04T20:05:12.257Z,100695.69
2023-05-04T20:10:13.740Z,100689.81
2023-05-04T20:15:15.780Z,100687.69
2023-05-04T20:20:20.270Z,100683.38
2023-05-04T20:25:22.832Z,100684.09
2023-05-04T20:30:28.016Z,100679.06
2023-05-04T20:35:29.441Z,100680.94
2023-05-04T20:40:30.869Z,100679.03
2023-05-04T20:45:32.644Z,100677.59
2023-05-04T20:50:34.204Z,100679.00
2023-05-04T20:55:36.036Z,100674.84
2023-05-04T21:00:37.465Z,100672.41
2023-05-04T21:05:39.682Z,100678.09
2023-05-04T21:10:41.335Z,100662.34
2023-05-04T21:15:42.850Z,100663.72
2023-05-04T21:20:44.305Z,100665.88
2023-05-04T21:25:45.734Z,100655.38
2023-05-04T21:30:47.140Z,100665.66
2023-05-04T21:35:48.787Z,100664.22
2023-05-04T21:40:50.598Z,100654.75
2023-05-04T21:45:52.024Z,100662.56
2023-05-04T21:50:53.452Z,100657.19
2023-05-04T21:55:54.863Z,100646.50
2023-05-04T22:00:56.458Z,100640.16
2023-05-04T22:05:58.083Z,100636.91
2023-05-04T22:10:59.613Z,100633.09
2023-05-04T22:16:01.072Z,100637.34
2023-05-04T22:21:02.497Z,100641.19
2023-05-04T22:26:04.077Z,100645.69
2023-05-04T22:31:05.623Z,100642.47
2023-05-04T22:36:07.489Z,100633.16
2023-05-04T22:41:08.949Z,100631.06
2023-05-04T22:46:19.235Z,100621.97
2023-05-04T22:51:20.756Z,100614.69
2023-05-04T22:56:22.256Z,100616.69
2023-05-04T23:01:23.814Z,100610.53
2023-05-04T23:06:25.290Z,100615.22
2023-05-04T23:11:26.744Z,100620.41
2023-05-04T23:16:28.271Z,100616.69
2023-05-04T23:21:29.926Z,100627.53
2023-05-04T23:26:31.598Z,100618.91
2023-05-04T23:31:33.098Z,100607.47
2023-05-04T23:36:34.538Z,100603.00
2023-05-04T23:41:35.956Z,100602.66
2023-05-04T23:46:37.429Z,100603.38
2023-05-04T23:51:38.844Z,100601.03
2023-05-04T23:56:40.325Z,100601.53
